createdAt,value
2023-04-16T00:01:27.784Z,8.50
2023-04-16T00:03:55.333Z,8.50
2023-04-16T00:06:22.888Z,8.40
2023-04-16T00:08:50.262Z,8.40
2023-04-16T00:11:17.193Z,8.30
2023-04-16T00:13:43.811Z,8.40
2023-04-16T00:16:10.564Z,8.40
2023-04-16T00:18:37.215Z,8.40
2023-04-16T00:21:03.983Z,8.40
2023-04-16T00:23:30.968Z,8.40
2023-04-16T00:25:59.753Z,8.50
2023-04-16T00:28:27.553Z,8.50
2023-04-16T00:30:54.902Z,8.50
2023-04-16T00:33:21.690Z,8.50
2023-04-16T00:35:48.799Z,8.50
2023-04-16T00:38:15.766Z,8.50
2023-04-16T00:40:42.443Z,8.50
2023-04-16T00:43:09.109Z,8.50
2023-04-16T00:45:36.551Z,8.50
2023-04-16T00:48:04.729Z,8.50
2023-04-16T00:50:32.194Z,8.50
2023-04-16T00:52:59.487Z,8.50
2023-04-16T00:55:26.200Z,8.50
2023-04-16T00:57:53.240Z,8.40
2023-04-16T01:00:21.315Z,8.40
2023-04-16T01:02:48.161Z,8.50
2023-04-16T01:05:14.867Z,8.50
2023-04-16T01:07:41.521Z,8.50
2023-04-16T01:10:08.770Z,8.50
2023-04-16T01:12:35.406Z,8.40
2023-04-16T01:15:02.458Z,8.50
2023-04-16T01:17:29.154Z,8.40
2023-04-16T01:20:00.244Z,8.40
2023-04-16T01:22:28.455Z,8.40
2023-04-16T01:24:55.081Z,8.50
2023-04-16T01:27:21.735Z,8.50
2023-04-16T01:29:48.338Z,8.50
2023-04-16T01:32:21.025Z,8.50
2023-04-16T01:34:47.752Z,8.50
2023-04-16T01:37:14.467Z,8.50
2023-04-16T01:39:41.071Z,8.50
2023-04-16T01:42:08.237Z,8.50
2023-04-16T01:44:34.813Z,8.50
2023-04-16T01:47:01.836Z,8.50
2023-04-16T01:49:29.410Z,8.40
2023-04-16T01:51:56.101Z,8.40
2023-04-16T01:54:23.226Z,8.50
2023-04-16T01:56:49.847Z,8.50
2023-04-16T01:59:17.042Z,8.50
2023-04-16T02:01:44.495Z,8.60
2023-04-16T02:04:12.531Z,8.60
2023-04-16T02:06:39.475Z,8.50
2023-04-16T02:09:06.068Z,8.50
2023-04-16T02:11:32.808Z,8.50
2023-04-16T02:13:59.609Z,8.60
2023-04-16T02:16:26.416Z,8.60
2023-04-16T02:18:58.425Z,8.60
2023-04-16T02:21:27.418Z,8.70
2023-04-16T02:23:54.032Z,8.50
2023-04-16T02:26:26.572Z,8.50
2023-04-16T02:28:55.575Z,8.50
2023-04-16T02:31:28.369Z,8.50
2023-04-16T02:33:56.235Z,8.50
2023-04-16T02:36:22.942Z,8.50
2023-04-16T02:38:49.845Z,8.50
2023-04-16T02:41:16.538Z,8.50
2023-04-16T02:43:43.178Z,8.60
2023-04-16T02:46:09.831Z,8.60
2023-04-16T02:48:36.512Z,8.50
2023-04-16T02:51:03.260Z,8.50
2023-04-16T02:53:29.934Z,8.60
2023-04-16T02:55:56.852Z,8.60
2023-04-16T02:58:25.221Z,8.60
2023-04-16T03:00:55.323Z,8.60
2023-04-16T03:03:22.295Z,8.60
2023-04-16T03:05:49.323Z,8.60
2023-04-16T03:08:16.551Z,8.60
2023-04-16T03:10:43.232Z,8.60
2023-04-16T03:13:10.184Z,8.60
2023-04-16T03:15:36.879Z,8.60
2023-04-16T03:18:03.708Z,8.60
2023-04-16T03:20:30.723Z,8.50
2023-04-16T03:22:57.367Z,8.50
2023-04-16T03:25:23.980Z,8.50
2023-04-16T03:27:51.243Z,8.40
2023-04-16T03:30:18.513Z,8.40
2023-04-16T03:32:45.441Z,8.50
2023-04-16T03:35:12.680Z,8.50
2023-04-16T03:37:39.816Z,8.50
2023-04-16T03:40:07.412Z,8.50
2023-04-16T03:42:34.476Z,8.50
2023-04-16T03:45:02.316Z,8.50
2023-04-16T03:47:29.002Z,8.50
2023-04-16T03:49:59.224Z,8.60
2023-04-16T03:52:28.039Z,8.60
2023-04-16T03:54:54.988Z,8.60
2023-04-16T03:57:27.184Z,8.50
2023-04-16T03:59:57.841Z,8.50
2023-04-16T04:02:27.121Z,8.50
2023-04-16T04:04:54.057Z,8.50
2023-04-16T04:07:20.778Z,8.50
2023-04-16T04:09:47.432Z,8.50
2023-04-16T04:12:15.040Z,8.50
2023-04-16T04:14:43.139Z,8.50
2023-04-16T04:17:09.897Z,8.50
2023-04-16T04:19:38.823Z,8.50
2023-04-16T04:22:07.855Z,8.50
2023-04-16T04:24:37.038Z,8.50
2023-04-16T04:29:31.505Z,8.60
2023-04-16T04:31:58.954Z,8.60
2023-04-16T04:34:25.760Z,8.60
2023-04-16T04:36:55.528Z,8.70
2023-04-16T04:39:22.314Z,8.70
2023-04-16T04:41:50.179Z,8.70
2023-04-16T04:44:18.217Z,8.60
2023-04-16T04:46:45.366Z,8.70
2023-04-16T04:49:12.870Z,8.70
2023-04-16T04:51:39.729Z,8.70
2023-04-16T04:54:06.407Z,8.70
2023-04-16T04:56:33.185Z,8.70
2023-04-16T04:58:59.778Z,8.70
2023-04-16T05:01:26.538Z,8.70
2023-04-16T05:03:53.249Z,8.80
2023-04-16T05:06:19.852Z,8.70
2023-04-16T05:08:46.452Z,8.80
2023-04-16T05:11:13.082Z,8.80
2023-04-16T05:13:39.757Z,8.80
2023-04-16T05:16:07.185Z,8.70
2023-04-16T05:18:33.907Z,8.80
2023-04-16T05:21:00.576Z,8.80
2023-04-16T05:23:28.057Z,8.70
2023-04-16T05:25:54.707Z,8.70
2023-04-16T05:28:21.326Z,8.70
2023-04-16T05:30:47.997Z,8.80
2023-04-16T05:33:14.636Z,8.70
2023-04-16T05:35:41.344Z,8.70
2023-04-16T05:38:08.098Z,8.70
2023-04-16T05:40:35.291Z,8.80
2023-04-16T05:43:01.915Z,8.80
2023-04-16T05:45:28.530Z,8.80
2023-04-16T05:47:55.294Z,8.80
2023-04-16T05:50:21.993Z,8.80
2023-04-16T05:52:48.632Z,8.80
2023-04-16T05:55:15.325Z,8.80
2023-04-16T05:57:41.977Z,8.80
2023-04-16T06:00:09.039Z,8.80
2023-04-16T06:02:41.772Z,8.80
2023-04-16T06:05:08.759Z,8.80
2023-04-16T06:07:35.719Z,8.80
2023-04-16T06:10:02.438Z,8.80
2023-04-16T06:12:29.117Z,8.80
2023-04-16T06:14:56.167Z,8.80
2023-04-16T06:17:22.960Z,8.90
2023-04-16T06:19:49.576Z,8.80
2023-04-16T06:22:16.248Z,8.80
2023-04-16T06:24:42.908Z,8.90
2023-04-16T06:27:09.592Z,8.80
2023-04-16T06:29:41.183Z,8.80
2023-04-16T06:32:08.500Z,8.90
2023-04-16T06:34:36.125Z,8.90
2023-04-16T06:37:03.264Z,8.90
2023-04-16T06:39:30.136Z,8.90
2023-04-16T06:41:57.134Z,8.90
2023-04-16T06:44:23.717Z,8.90
2023-04-16T06:46:51.118Z,8.90
2023-04-16T06:49:17.797Z,8.90
2023-04-16T06:51:44.579Z,8.90
2023-04-16T06:54:11.209Z,8.90
2023-04-16T06:56:37.921Z,9.00
2023-04-16T06:59:04.700Z,9.00
2023-04-16T07:01:31.530Z,9.00
2023-04-16T07:03:58.697Z,9.00
2023-04-16T07:06:27.032Z,9.00
2023-04-16T07:08:53.672Z,9.10
2023-04-16T07:11:20.880Z,9.10
2023-04-16T07:13:47.536Z,9.10
2023-04-16T07:16:14.266Z,9.10
2023-04-16T07:18:40.908Z,9.10
2023-04-16T07:21:07.532Z,9.10
2023-04-16T07:23:34.216Z,9.10
2023-04-16T07:26:00.938Z,9.10
2023-04-16T07:28:27.594Z,9.20
2023-04-16T07:30:54.388Z,9.20
2023-04-16T07:33:21.060Z,9.20
2023-04-16T07:35:48.036Z,9.10
2023-04-16T07:38:16.170Z,9.10
2023-04-16T07:40:42.877Z,9.60
2023-04-16T07:43:10.021Z,9.70
2023-04-16T07:45:36.808Z,9.60
2023-04-16T07:48:03.996Z,9.50
2023-04-16T07:50:30.781Z,9.50
2023-04-16T07:52:57.451Z,9.50
2023-04-16T07:55:24.214Z,9.40
2023-04-16T07:57:51.041Z,9.50
2023-04-16T08:00:17.851Z,9.50
2023-04-16T08:02:45.037Z,9.40
2023-04-16T08:05:13.491Z,9.40
2023-04-16T08:07:40.210Z,9.40
2023-04-16T08:10:07.543Z,9.40
2023-04-16T08:12:34.650Z,9.40
2023-04-16T08:15:01.284Z,9.30
2023-04-16T08:17:29.359Z,9.40
2023-04-16T08:19:56.125Z,9.50
2023-04-16T08:22:22.805Z,9.40
2023-04-16T08:24:50.148Z,9.50
2023-04-16T08:27:19.923Z,9.60
2023-04-16T08:29:47.721Z,9.50
2023-04-16T08:32:14.350Z,9.60
2023-04-16T08:34:41.920Z,9.60
2023-04-16T08:37:08.938Z,9.60
2023-04-16T08:39:35.813Z,9.70
2023-04-16T08:42:06.126Z,9.80
2023-04-16T08:44:34.837Z,10.00
2023-04-16T08:47:02.283Z,10.00
2023-04-16T08:49:29.769Z,10.10
2023-04-16T08:51:57.005Z,10.10
2023-04-16T08:54:26.423Z,10.10
2023-04-16T08:56:53.449Z,10.10
2023-04-16T08:59:20.369Z,10.20
2023-04-16T09:01:49.003Z,10.30
2023-04-16T09:04:16.478Z,10.30
2023-04-16T09:06:43.724Z,10.30
2023-04-16T09:09:11.550Z,10.20
2023-04-16T09:11:39.562Z,10.30
2023-04-16T09:14:09.722Z,10.30
2023-04-16T09:16:36.805Z,10.30
2023-04-16T09:19:03.818Z,10.30
2023-04-16T09:21:30.904Z,10.40
2023-04-16T09:23:58.716Z,10.40
2023-04-16T09:26:25.946Z,10.50
2023-04-16T09:28:52.619Z,10.60
2023-04-16T09:31:19.902Z,10.70
2023-04-16T09:34:06.946Z,10.70
2023-04-16T09:36:34.534Z,10.70
2023-04-16T09:39:02.296Z,10.70
2023-04-16T09:41:31.125Z,10.70
2023-04-16T09:44:02.025Z,10.70
2023-04-16T09:46:34.710Z,10.70
2023-04-16T09:49:15.320Z,11.00
2023-04-16T09:51:44.037Z,11.00
2023-04-16T09:54:11.101Z,11.00
2023-04-16T09:56:42.471Z,10.90
2023-04-16T09:59:22.351Z,10.90
2023-04-16T10:01:50.225Z,11.00
2023-04-16T10:04:17.158Z,11.10
2023-04-16T10:06:44.129Z,11.10
2023-04-16T10:09:11.077Z,11.10
2023-04-16T10:11:38.228Z,11.00
2023-04-16T10:14:05.284Z,11.00
2023-04-16T10:16:32.867Z,11.00
2023-04-16T10:18:59.779Z,11.00
2023-04-16T10:21:33.467Z,11.00
2023-04-16T10:24:00.633Z,11.10
2023-04-16T10:26:28.940Z,11.20
2023-04-16T10:28:56.488Z,11.30
2023-04-16T10:31:23.558Z,11.40
2023-04-16T10:33:50.438Z,11.40
2023-04-16T10:36:23.575Z,11.60
2023-04-16T10:38:52.234Z,11.50
2023-04-16T10:41:21.695Z,11.50
2023-04-16T10:43:50.365Z,11.50
2023-04-16T10:46:26.506Z,11.60
2023-04-16T10:48:54.433Z,11.60
2023-04-16T10:51:32.554Z,11.60
2023-04-16T10:54:21.739Z,11.60
2023-04-16T10:56:49.731Z,11.60
2023-04-16T10:59:21.997Z,11.60
2023-04-16T11:01:55.840Z,11.60
2023-04-16T11:04:27.250Z,11.70
2023-04-16T11:07:07.514Z,11.60
2023-04-16T11:09:52.495Z,11.60
2023-04-16T11:12:40.862Z,11.70
2023-04-16T11:15:08.959Z,11.70
2023-04-16T11:17:40.087Z,11.80
2023-04-16T11:20:21.609Z,11.80
2023-04-16T11:22:49.610Z,11.80
2023-04-16T11:25:23.531Z,11.80
2023-04-16T11:27:51.134Z,12.00
2023-04-16T11:30:19.366Z,12.00
2023-04-16T11:32:46.022Z,12.00
2023-04-16T11:35:19.506Z,12.00
2023-04-16T11:37:48.269Z,12.00
2023-04-16T11:40:15.337Z,12.10
2023-04-16T11:42:42.626Z,12.30
2023-04-16T11:45:11.737Z,12.40
2023-04-16T11:47:46.677Z,12.60
2023-04-16T11:50:23.411Z,12.70
2023-04-16T11:52:51.816Z,12.70
2023-04-16T11:55:19.125Z,12.70
2023-04-16T11:57:46.164Z,12.60
2023-04-16T12:00:13.853Z,12.60
2023-04-16T12:02:46.155Z,12.50
2023-04-16T12:05:34.456Z,12.50
2023-04-16T12:08:03.161Z,12.40
2023-04-16T12:10:31.010Z,12.40
2023-04-16T12:13:14.428Z,12.50
2023-04-16T12:15:48.985Z,12.50
2023-04-16T12:18:16.459Z,12.60
2023-04-16T12:20:44.828Z,12.70
2023-04-16T12:23:29.539Z,12.80
2023-04-16T12:26:02.897Z,13.00
2023-04-16T12:28:35.324Z,13.10
2023-04-16T12:31:03.004Z,13.30
2023-04-16T12:33:30.021Z,13.30
2023-04-16T12:35:56.707Z,13.70
2023-04-16T12:38:24.623Z,13.50
2023-04-16T12:40:51.832Z,13.50
2023-04-16T12:43:19.722Z,13.50
2023-04-16T12:45:46.668Z,13.40
2023-04-16T12:48:13.337Z,13.30
2023-04-16T12:50:40.099Z,13.20
2023-04-16T12:53:06.894Z,13.10
2023-04-16T12:55:34.213Z,13.00
2023-04-16T12:58:01.541Z,13.00
2023-04-16T13:00:28.907Z,13.00
2023-04-16T13:02:55.992Z,13.00
2023-04-16T13:05:22.713Z,13.10
2023-04-16T13:07:49.362Z,13.20
2023-04-16T13:10:16.493Z,13.30
2023-04-16T13:12:43.106Z,13.40
2023-04-16T13:15:10.723Z,13.60
2023-04-16T13:17:37.944Z,13.60
2023-04-16T13:20:05.039Z,13.60
2023-04-16T13:22:31.633Z,13.60
2023-04-16T13:24:58.275Z,13.60
2023-04-16T13:27:24.940Z,13.50
2023-04-16T13:29:51.596Z,13.60
2023-04-16T13:32:18.841Z,13.50
2023-04-16T13:34:45.589Z,13.50
2023-04-16T13:37:12.255Z,13.50
2023-04-16T13:39:39.043Z,13.50
2023-04-16T13:42:05.795Z,13.50
2023-04-16T13:44:32.415Z,13.60
2023-04-16T13:47:00.597Z,13.70
2023-04-16T13:49:28.152Z,13.70
2023-04-16T13:51:54.846Z,13.60
2023-04-16T13:54:21.482Z,13.70
2023-04-16T13:56:50.454Z,13.80
2023-04-16T13:59:17.370Z,13.90
2023-04-16T14:01:44.295Z,14.10
2023-04-16T14:04:10.943Z,14.20
2023-04-16T14:06:37.570Z,14.20
2023-04-16T14:09:04.760Z,14.20
2023-04-16T14:11:31.562Z,14.20
2023-04-16T14:13:58.316Z,14.10
2023-04-16T14:16:25.582Z,14.00
2023-04-16T14:18:52.229Z,14.00
2023-04-16T14:21:19.200Z,13.90
2023-04-16T14:23:45.865Z,13.90
2023-04-16T14:26:12.610Z,13.90
2023-04-16T14:28:40.798Z,13.80
2023-04-16T14:31:07.775Z,13.80
2023-04-16T14:33:34.744Z,13.80
2023-04-16T14:36:03.144Z,13.80
2023-04-16T14:38:31.083Z,13.90
2023-04-16T14:40:57.772Z,13.90
2023-04-16T14:43:24.422Z,13.90
2023-04-16T14:45:51.619Z,13.90
2023-04-16T14:48:18.450Z,14.00
2023-04-16T14:50:45.262Z,13.90
2023-04-16T14:53:12.202Z,13.80
2023-04-16T14:55:38.860Z,13.90
2023-04-16T14:58:05.512Z,14.00
2023-04-16T15:00:34.645Z,14.80
2023-04-16T15:03:01.597Z,15.30
2023-04-16T15:05:29.566Z,14.90
2023-04-16T15:07:56.186Z,14.60
2023-04-16T15:10:22.880Z,14.50
2023-04-16T15:12:49.540Z,14.30
2023-04-16T15:15:16.244Z,14.20
2023-04-16T15:17:43.721Z,14.10
2023-04-16T15:20:10.887Z,14.10
2023-04-16T15:22:38.268Z,14.10
2023-04-16T15:25:06.251Z,14.00
2023-04-16T15:27:33.450Z,14.00
2023-04-16T15:30:00.319Z,14.10
2023-04-16T15:32:27.148Z,14.10
2023-04-16T15:34:53.802Z,14.10
2023-04-16T15:37:20.469Z,14.00
2023-04-16T15:39:47.095Z,14.00
2023-04-16T15:42:13.729Z,14.00
2023-04-16T15:44:40.891Z,14.00
2023-04-16T15:47:08.684Z,14.00
2023-04-16T15:49:36.185Z,13.90
2023-04-16T15:52:03.259Z,13.90
2023-04-16T15:54:30.935Z,14.00
2023-04-16T15:56:58.708Z,14.00
2023-04-16T15:59:26.536Z,14.00
2023-04-16T16:01:53.547Z,14.00
2023-04-16T16:04:22.681Z,14.10
2023-04-16T16:06:50.145Z,14.20
2023-04-16T16:09:16.932Z,14.20
2023-04-16T16:11:44.287Z,14.20
2023-04-16T16:14:10.965Z,14.10
2023-04-16T16:16:37.932Z,14.10
2023-04-16T16:19:04.928Z,14.00
2023-04-16T16:21:32.585Z,14.00
2023-04-16T16:23:59.320Z,13.90
2023-04-16T16:26:26.040Z,13.80
2023-04-16T16:28:52.698Z,13.80
2023-04-16T16:31:19.480Z,13.70
2023-04-16T16:33:46.158Z,13.60
2023-04-16T16:36:12.866Z,13.50
2023-04-16T16:38:42.411Z,13.50
2023-04-16T16:41:09.511Z,13.40
2023-04-16T16:43:36.819Z,13.30
2023-04-16T16:46:03.738Z,13.30
2023-04-16T16:48:30.570Z,13.30
2023-04-16T16:50:57.284Z,13.20
2023-04-16T16:53:24.096Z,13.20
2023-04-16T16:55:51.241Z,13.20
2023-04-16T16:58:18.340Z,13.10
2023-04-16T17:00:45.075Z,13.10
2023-04-16T17:03:12.280Z,13.00
2023-04-16T17:05:39.145Z,13.00
2023-04-16T17:08:06.592Z,13.10
2023-04-16T17:10:33.297Z,13.10
2023-04-16T17:12:59.962Z,13.00
2023-04-16T17:15:26.787Z,13.00
2023-04-16T17:17:54.488Z,12.90
2023-04-16T17:20:21.161Z,12.90
2023-04-16T17:22:47.856Z,12.80
2023-04-16T17:25:14.923Z,12.80
2023-04-16T17:27:41.879Z,12.70
2023-04-16T17:30:09.037Z,12.70
2023-04-16T17:32:36.493Z,12.70
2023-04-16T17:35:04.248Z,12.60
2023-04-16T17:37:31.312Z,12.60
2023-04-16T17:39:57.984Z,12.60
2023-04-16T17:42:24.840Z,12.60
2023-04-16T17:44:51.806Z,12.60
2023-04-16T17:47:18.468Z,12.60
2023-04-16T17:49:45.355Z,12.50
2023-04-16T17:52:11.988Z,12.50
2023-04-16T17:54:38.632Z,12.50
2023-04-16T17:57:05.906Z,12.50
2023-04-16T17:59:32.964Z,12.40
2023-04-16T18:01:59.926Z,12.40
2023-04-16T18:04:26.745Z,12.40
2023-04-16T18:06:53.539Z,12.30
2023-04-16T18:09:20.268Z,12.20
2023-04-16T18:11:46.989Z,12.20
2023-04-16T18:14:16.712Z,12.20
2023-04-16T18:16:43.577Z,12.20
2023-04-16T18:19:10.262Z,12.20
2023-04-16T18:21:37.086Z,12.10
2023-04-16T18:24:03.884Z,12.20
2023-04-16T18:26:31.153Z,12.20
2023-04-16T18:28:59.547Z,12.30
2023-04-16T18:31:26.865Z,12.30
2023-04-16T18:33:58.032Z,12.30
2023-04-16T18:36:26.492Z,12.30
2023-04-16T18:39:01.761Z,12.40
2023-04-16T18:41:41.566Z,12.50
2023-04-16T18:44:10.571Z,12.40
2023-04-16T18:46:37.275Z,12.40
2023-04-16T18:49:03.960Z,12.30
2023-04-16T18:51:30.686Z,12.30
2023-04-16T18:53:57.759Z,12.40
2023-04-16T18:56:24.629Z,12.30
2023-04-16T18:58:51.257Z,12.40
2023-04-16T19:01:18.232Z,12.30
2023-04-16T19:03:45.377Z,12.30
2023-04-16T19:06:12.072Z,12.30
2023-04-16T19:08:38.771Z,12.30
2023-04-16T19:11:05.390Z,12.30
2023-04-16T19:13:32.283Z,12.30
2023-04-16T19:16:00.284Z,12.20
2023-04-16T19:18:27.149Z,12.20
2023-04-16T19:21:01.839Z,12.20
2023-04-16T19:23:29.003Z,12.20
2023-04-16T19:25:56.653Z,12.20
2023-04-16T19:28:24.229Z,12.20
2023-04-16T19:30:52.080Z,12.20
2023-04-16T19:33:18.917Z,12.20
2023-04-16T19:35:46.402Z,12.20
2023-04-16T19:38:13.320Z,12.30
2023-04-16T19:40:41.032Z,12.30
2023-04-16T19:43:07.770Z,12.30
2023-04-16T19:45:35.009Z,12.30
2023-04-16T19:48:01.689Z,12.30
2023-04-16T19:50:28.355Z,12.20
2023-04-16T19:52:54.954Z,12.20
2023-04-16T19:55:22.570Z,12.20
2023-04-16T19:57:49.219Z,12.20
2023-04-16T20:00:16.928Z,12.20
2023-04-16T20:02:44.277Z,12.10
2023-04-16T20:05:10.975Z,12.20
2023-04-16T20:07:37.707Z,12.10
2023-04-16T20:10:04.644Z,12.10
2023-04-16T20:12:31.266Z,12.10
2023-04-16T20:14:57.878Z,12.10
2023-04-16T20:17:24.534Z,12.10
2023-04-16T20:19:51.382Z,12.10
2023-04-16T20:22:18.608Z,12.00
2023-04-16T20:24:48.712Z,12.00
2023-04-16T20:27:16.845Z,12.00
2023-04-16T20:29:43.564Z,12.00
2023-04-16T20:32:10.234Z,12.00
2023-04-16T20:34:37.893Z,12.10
2023-04-16T20:37:04.805Z,12.00
2023-04-16T20:39:34.029Z,12.00
2023-04-16T20:42:04.033Z,11.90
2023-04-16T20:44:40.058Z,12.00
2023-04-16T20:47:15.199Z,11.90
2023-04-16T20:49:46.223Z,11.90
2023-04-16T20:52:13.859Z,11.90
2023-04-16T20:54:40.879Z,11.80
2023-04-16T20:57:07.664Z,11.80
2023-04-16T20:59:34.429Z,11.80
2023-04-16T21:02:01.427Z,11.80
2023-04-16T21:04:28.535Z,11.80
2023-04-16T21:06:55.354Z,11.70
2023-04-16T21:09:23.082Z,11.80
2023-04-16T21:11:49.746Z,11.80
2023-04-16T21:14:16.477Z,11.80
2023-04-16T21:16:43.138Z,11.90
2023-04-16T21:19:09.994Z,11.90
2023-04-16T21:21:38.104Z,11.90
2023-04-16T21:24:05.517Z,11.80
2023-04-16T21:26:32.184Z,11.90
2023-04-16T21:28:58.856Z,11.90
2023-04-16T21:31:25.589Z,11.80
2023-04-16T21:33:52.330Z,11.70
2023-04-16T21:36:19.004Z,11.70
2023-04-16T21:38:45.626Z,11.70
2023-04-16T21:41:12.274Z,11.50
2023-04-16T21:43:38.877Z,11.50
2023-04-16T21:46:05.787Z,11.50
2023-04-16T21:48:32.429Z,11.40
2023-04-16T21:51:05.942Z,11.40
2023-04-16T21:53:33.010Z,11.30
2023-04-16T21:55:59.800Z,11.30
2023-04-16T21:58:26.569Z,11.30
2023-04-16T22:00:53.281Z,11.30
2023-04-16T22:03:25.960Z,11.30
2023-04-16T22:06:00.720Z,11.20
2023-04-16T22:08:28.547Z,11.20
2023-04-16T22:10:59.477Z,11.20
2023-04-16T22:13:26.229Z,11.20
2023-04-16T22:15:53.488Z,11.10
2023-04-16T22:18:20.218Z,11.10
2023-04-16T22:20:47.190Z,11.00
2023-04-16T22:23:14.019Z,11.00
2023-04-16T22:25:40.776Z,10.90
2023-04-16T22:28:07.531Z,10.90
2023-04-16T22:30:34.175Z,10.90
2023-04-16T22:33:00.899Z,10.90
2023-04-16T22:35:28.031Z,10.90
2023-04-16T22:37:54.799Z,10.90
2023-04-16T22:40:21.410Z,11.00
2023-04-16T22:42:48.062Z,11.10
2023-04-16T22:45:15.118Z,11.10
2023-04-16T22:47:41.874Z,11.10
2023-04-16T22:50:10.617Z,11.10
2023-04-16T22:52:37.258Z,11.10
2023-04-16T22:55:04.346Z,11.10
2023-04-16T22:57:31.000Z,11.10
2023-04-16T22:59:57.767Z,11.20
2023-04-16T23:02:24.454Z,11.20
2023-04-16T23:04:51.216Z,11.10
2023-04-16T23:07:18.446Z,11.20
2023-04-16T23:09:45.150Z,11.20
2023-04-16T23:12:11.777Z,11.20
2023-04-16T23:14:38.456Z,11.20
2023-04-16T23:17:05.296Z,11.20
2023-04-16T23:19:31.910Z,11.20
2023-04-16T23:21:58.700Z,11.10
2023-04-16T23:24:25.372Z,11.10
2023-04-16T23:26:52.639Z,11.10
2023-04-16T23:29:20.459Z,11.10
2023-04-16T23:31:47.793Z,11.10
2023-04-16T23:34:14.595Z,11.10
2023-04-16T23:36:41.668Z,11.10
2023-04-16T23:39:08.318Z,11.10
2023-04-16T23:41:35.156Z,11.10
2023-04-16T23:44:02.058Z,11.10
2023-04-16T23:46:28.760Z,11.00
2023-04-16T23:48:55.550Z,11.00
2023-04-16T23:51:22.509Z,11.00
2023-04-16T23:53:49.135Z,11.00
2023-04-16T23:56:16.502Z,11.00
2023-04-16T23:58:43.148Z,11.00
